Eems Trader — V2DE3 — position and weather

sailwx.info

Track history (hours):
 
Tides and Currents Weather Stations Pressure Air Temp Water Temp Dewpoint Dewpoint Depression Visibility Wind Speed Wind Dir Waves Ship Positions

Eems Trader

Last reported at 2015-Jan-29 13:10 UTC. Time now 2015-Jan-30 17:01 UTC.
Position N 43°37' E 004°39'.

; draft 4.1 m.

Type: Cargo ship. MMSI: 305182000.

Date/timePositionNaut miles runAvg speedWind from/ knotsBaromVisibWave heightAir tempDewpointWater temp
2015-Jan-29 13:10N 43°37' E 004°39'15 5.7
2015-Jan-29 10:32N 43°23' E 004°48'1 1.5
2015-Jan-29 09:33N 43°23' E 004°50'6 6.4
2015-Jan-29 08:34N 43°22' E 004°58'4 3.6
2015-Jan-29 07:33N 43°18' E 004°56'8 7.4
2015-Jan-29 06:33N 43°17' E 004°46'7 6.8
2015-Jan-29 05:28N 43°10' E 004°43'7 6.9
2015-Jan-29 04:28N 43°08' E 004°34'7 7.5
2015-Jan-29 03:29N 43°07' E 004°23'7 7.3
2015-Jan-29 02:33N 43°07' E 004°14'8 7.6
2015-Jan-29 01:33N 43°06' E 004°04'8 7.7
2015-Jan-29 00:33N 43°05' E 003°54'8 7.7
2015-Jan-28 23:33N 43°04' E 003°43'8 7.6
2015-Jan-28 22:33N 43°03' E 003°33'5 5.5
2015-Jan-28 21:33N 42°59' E 003°27'7 7.5
2015-Jan-28 20:34N 42°52' E 003°28'7 7.3
2015-Jan-28 19:33N 42°45' E 003°29'7 7.0
2015-Jan-28 18:33N 42°38' E 003°29'7 7.1
2015-Jan-28 17:34N 42°31' E 003°28'7 6.8
2015-Jan-28 16:33N 42°24' E 003°26'7 7.1
2015-Jan-28 15:33N 42°17' E 003°24'8 6.4
2015-Jan-28 14:21N 42°09' E 003°22'5 6.6
2015-Jan-28 13:32N 42°04' E 003°20'7 6.4
2015-Jan-28 12:31N 41°58' E 003°18'8 6.9
2015-Jan-28 11:17N 41°50' E 003°13'8 7.3
2015-Jan-28 10:11N 41°44' E 003°05'8 7.8
2015-Jan-28 09:10N 41°40' E 002°57'8 8.2
2015-Jan-28 08:13N 41°35' E 002°48'49 2.1
2015-Jan-27 09:10N 41°01' E 002°02'6 8.3
2015-Jan-27 08:28N 40°55' E 001°60'7 7.5
2015-Jan-27 07:33N 40°49' E 001°57'8 7.8
2015-Jan-27 06:33N 40°42' E 001°52'8 7.9
2015-Jan-27 05:33N 40°35' E 001°47'8 7.6
2015-Jan-27 04:33N 40°28' E 001°42'8 7.6
2015-Jan-27 03:33N 40°21' E 001°37'8 7.9
2015-Jan-27 02:33N 40°15' E 001°32'8 8.5
2015-Jan-27 01:33N 40°07' E 001°27'9 8.6
2015-Jan-27 00:33N 39°59' E 001°22'8 8.1
2015-Jan-26 23:33N 39°52' E 001°17'384 7.8
2015-Jan-24 22:04N 36°00' W 005°12'610.8
2015-Jan-24 21:33N 35°59' W 005°19'  
Track history (hours):
 
Tides and Currents Weather Stations Pressure Air Temp Water Temp Dewpoint Dewpoint Depression Visibility Wind Speed Wind Dir Waves Ship Positions

Eems Trader

Last reported at 2015-Jan-29 13:10 UTC. Time now 2015-Jan-30 17:01 UTC.
Position N 43°37' E 004°39'.

; draft 4.1 m.

Type: Cargo ship. MMSI: 305182000.

Date/timePositionNaut miles runAvg speedWind from/ knotsBaromVisibWave heightAir tempDewpointWater temp
2015-Jan-29 13:10N 43°37' E 004°39'15 5.7
2015-Jan-29 10:32N 43°23' E 004°48'1 1.5
2015-Jan-29 09:33N 43°23' E 004°50'6 6.4
2015-Jan-29 08:34N 43°22' E 004°58'4 3.6
2015-Jan-29 07:33N 43°18' E 004°56'8 7.4
2015-Jan-29 06:33N 43°17' E 004°46'7 6.8
2015-Jan-29 05:28N 43°10' E 004°43'7 6.9
2015-Jan-29 04:28N 43°08' E 004°34'7 7.5
2015-Jan-29 03:29N 43°07' E 004°23'7 7.3
2015-Jan-29 02:33N 43°07' E 004°14'8 7.6
2015-Jan-29 01:33N 43°06' E 004°04'8 7.7
2015-Jan-29 00:33N 43°05' E 003°54'8 7.7
2015-Jan-28 23:33N 43°04' E 003°43'8 7.6
2015-Jan-28 22:33N 43°03' E 003°33'5 5.5
2015-Jan-28 21:33N 42°59' E 003°27'7 7.5
2015-Jan-28 20:34N 42°52' E 003°28'7 7.3
2015-Jan-28 19:33N 42°45' E 003°29'7 7.0
2015-Jan-28 18:33N 42°38' E 003°29'7 7.1
2015-Jan-28 17:34N 42°31' E 003°28'7 6.8
2015-Jan-28 16:33N 42°24' E 003°26'7 7.1
2015-Jan-28 15:33N 42°17' E 003°24'8 6.4
2015-Jan-28 14:21N 42°09' E 003°22'5 6.6
2015-Jan-28 13:32N 42°04' E 003°20'7 6.4
2015-Jan-28 12:31N 41°58' E 003°18'8 6.9
2015-Jan-28 11:17N 41°50' E 003°13'8 7.3
2015-Jan-28 10:11N 41°44' E 003°05'8 7.8
2015-Jan-28 09:10N 41°40' E 002°57'8 8.2
2015-Jan-28 08:13N 41°35' E 002°48'49 2.1
2015-Jan-27 09:10N 41°01' E 002°02'6 8.3
2015-Jan-27 08:28N 40°55' E 001°60'7 7.5
2015-Jan-27 07:33N 40°49' E 001°57'8 7.8
2015-Jan-27 06:33N 40°42' E 001°52'8 7.9
2015-Jan-27 05:33N 40°35' E 001°47'8 7.6
2015-Jan-27 04:33N 40°28' E 001°42'8 7.6
2015-Jan-27 03:33N 40°21' E 001°37'8 7.9
2015-Jan-27 02:33N 40°15' E 001°32'8 8.5
2015-Jan-27 01:33N 40°07' E 001°27'9 8.6
2015-Jan-27 00:33N 39°59' E 001°22'8 8.1
2015-Jan-26 23:33N 39°52' E 001°17'384 7.8
2015-Jan-24 22:04N 36°00' W 005°12'610.8
2015-Jan-24 21:33N 35°59' W 005°19'  

Dump ship's entire track history